sensor_id;sensor_type;location;lat;lon;timestamp;P1;durP1;ratioP1;P2;durP2;ratioP2
58966;SDS011;44744;51.894;5.080;2023-05-10T00:00:33;32.60;;;24.90;;
58966;SDS011;44744;51.894;5.080;2023-05-10T00:01:33;33.40;;;25.20;;
58966;SDS011;44744;51.894;5.080;2023-05-10T00:02:34;31.80;;;24.10;;
58966;SDS011;44744;51.894;5.080;2023-05-10T00:03:34;31.60;;;23.80;;
58966;SDS011;44744;51.894;5.080;2023-05-10T00:04:34;32.00;;;24.20;;
58966;SDS011;44744;51.894;5.080;2023-05-10T00:05:34;34.30;;;25.80;;
58966;SDS011;44744;51.894;5.080;2023-05-10T00:06:35;32.60;;;25.10;;
58966;SDS011;44744;51.894;5.080;2023-05-10T00:07:35;33.20;;;24.20;;
58966;SDS011;44744;51.894;5.080;2023-05-10T00:08:35;32.20;;;24.50;;
58966;SDS011;44744;51.894;5.080;2023-05-10T00:09:37;34.10;;;25.00;;
58966;SDS011;44744;51.894;5.080;2023-05-10T00:10:37;37.20;;;24.60;;
58966;SDS011;44744;51.894;5.080;2023-05-10T00:11:37;31.00;;;24.10;;
58966;SDS011;44744;51.894;5.080;2023-05-10T00:12:37;34.50;;;25.00;;
58966;SDS011;44744;51.894;5.080;2023-05-10T00:13:38;34.80;;;24.40;;
58966;SDS011;44744;51.894;5.080;2023-05-10T00:14:38;36.50;;;25.50;;
58966;SDS011;44744;51.894;5.080;2023-05-10T00:15:39;35.10;;;25.30;;
58966;SDS011;44744;51.894;5.080;2023-05-10T00:16:39;35.90;;;25.70;;
58966;SDS011;44744;51.894;5.080;2023-05-10T00:17:39;35.20;;;25.60;;
58966;SDS011;44744;51.894;5.080;2023-05-10T00:18:39;35.70;;;25.00;;
58966;SDS011;44744;51.894;5.080;2023-05-10T00:19:40;33.60;;;24.80;;
58966;SDS011;44744;51.894;5.080;2023-05-10T00:20:40;36.30;;;27.20;;
58966;SDS011;44744;51.894;5.080;2023-05-10T00:21:40;35.60;;;25.80;;
58966;SDS011;44744;51.894;5.080;2023-05-10T00:22:41;35.30;;;25.90;;
58966;SDS011;44744;51.894;5.080;2023-05-10T00:23:41;37.80;;;27.60;;
58966;SDS011;44744;51.894;5.080;2023-05-10T00:24:41;33.70;;;26.40;;
58966;SDS011;44744;51.894;5.080;2023-05-10T00:25:41;35.60;;;26.70;;
58966;SDS011;44744;51.894;5.080;2023-05-10T00:26:42;35.10;;;26.10;;
58966;SDS011;44744;51.894;5.080;2023-05-10T00:27:42;35.00;;;26.50;;
58966;SDS011;44744;51.894;5.080;2023-05-10T00:28:42;37.30;;;28.10;;
58966;SDS011;44744;51.894;5.080;2023-05-10T00:29:43;37.30;;;26.90;;
58966;SDS011;44744;51.894;5.080;2023-05-10T00:30:43;38.60;;;27.60;;
58966;SDS011;44744;51.894;5.080;2023-05-10T00:31:43;36.90;;;27.50;;
58966;SDS011;44744;51.894;5.080;2023-05-10T00:32:43;35.30;;;27.10;;
58966;SDS011;44744;51.894;5.080;2023-05-10T00:33:44;35.30;;;27.30;;
58966;SDS011;44744;51.894;5.080;2023-05-10T00:34:44;38.20;;;28.80;;
58966;SDS011;44744;51.894;5.080;2023-05-10T00:35:44;37.10;;;27.40;;
58966;SDS011;44744;51.894;5.080;2023-05-10T00:36:44;39.10;;;29.90;;
58966;SDS011;44744;51.894;5.080;2023-05-10T00:37:45;38.40;;;27.60;;
58966;SDS011;44744;51.894;5.080;2023-05-10T00:38:45;37.30;;;28.30;;
58966;SDS011;44744;51.894;5.080;2023-05-10T00:39:45;33.70;;;26.90;;
58966;SDS011;44744;51.894;5.080;2023-05-10T00:40:46;35.30;;;28.10;;
58966;SDS011;44744;51.894;5.080;2023-05-10T00:41:46;37.00;;;27.70;;
58966;SDS011;44744;51.894;5.080;2023-05-10T00:42:46;36.10;;;27.50;;
58966;SDS011;44744;51.894;5.080;2023-05-10T00:43:47;36.60;;;27.70;;
58966;SDS011;44744;51.894;5.080;2023-05-10T00:44:47;36.60;;;28.80;;
58966;SDS011;44744;51.894;5.080;2023-05-10T00:45:48;37.70;;;27.30;;
58966;SDS011;44744;51.894;5.080;2023-05-10T00:46:49;36.10;;;27.10;;
58966;SDS011;44744;51.894;5.080;2023-05-10T00:47:49;34.50;;;27.60;;
58966;SDS011;44744;51.894;5.080;2023-05-10T00:48:51;41.60;;;28.30;;
58966;SDS011;44744;51.894;5.080;2023-05-10T00:49:52;35.60;;;28.30;;
58966;SDS011;44744;51.894;5.080;2023-05-10T00:50:52;40.70;;;28.10;;
58966;SDS011;44744;51.894;5.080;2023-05-10T00:51:52;37.70;;;27.30;;
58966;SDS011;44744;51.894;5.080;2023-05-10T00:52:53;38.90;;;28.10;;
58966;SDS011;44744;51.894;5.080;2023-05-10T00:53:53;33.70;;;25.90;;
58966;SDS011;44744;51.894;5.080;2023-05-10T00:54:55;33.10;;;25.80;;
58966;SDS011;44744;51.894;5.080;2023-05-10T00:55:55;38.30;;;27.80;;
58966;SDS011;44744;51.894;5.080;2023-05-10T00:56:56;33.90;;;25.70;;
58966;SDS011;44744;51.894;5.080;2023-05-10T00:57:56;36.40;;;26.50;;
58966;SDS011;44744;51.894;5.080;2023-05-10T00:58:57;33.40;;;25.00;;
58966;SDS011;44744;51.894;5.080;2023-05-10T00:59:57;36.90;;;26.80;;
58966;SDS011;44744;51.894;5.080;2023-05-10T01:00:58;33.50;;;26.00;;
58966;SDS011;44744;51.894;5.080;2023-05-10T01:01:58;34.40;;;26.40;;
58966;SDS011;44744;51.894;5.080;2023-05-10T01:02:58;34.10;;;26.00;;
58966;SDS011;44744;51.894;5.080;2023-05-10T01:03:59;36.00;;;24.70;;
58966;SDS011;44744;51.894;5.080;2023-05-10T01:04:59;34.00;;;26.20;;
58966;SDS011;44744;51.894;5.080;2023-05-10T01:06:01;35.20;;;26.00;;
58966;SDS011;44744;51.894;5.080;2023-05-10T01:07:02;33.20;;;24.90;;
58966;SDS011;44744;51.894;5.080;2023-05-10T01:08:02;36.90;;;25.20;;
58966;SDS011;44744;51.894;5.080;2023-05-10T01:09:02;31.60;;;24.70;;
58966;SDS011;44744;51.894;5.080;2023-05-10T01:10:03;33.30;;;25.00;;
58966;SDS011;44744;51.894;5.080;2023-05-10T01:11:04;35.70;;;24.80;;
58966;SDS011;44744;51.894;5.080;2023-05-10T01:12:05;29.70;;;23.60;;
58966;SDS011;44744;51.894;5.080;2023-05-10T01:13:06;29.50;;;22.90;;
58966;SDS011;44744;51.894;5.080;2023-05-10T01:14:06;33.30;;;25.70;;
58966;SDS011;44744;51.894;5.080;2023-05-10T01:15:08;35.70;;;24.40;;
58966;SDS011;44744;51.894;5.080;2023-05-10T01:16:10;31.10;;;23.60;;
58966;SDS011;44744;51.894;5.080;2023-05-10T01:17:10;31.20;;;25.10;;
58966;SDS011;44744;51.894;5.080;2023-05-10T01:18:12;33.60;;;24.90;;
58966;SDS011;44744;51.894;5.080;2023-05-10T01:19:17;30.50;;;23.80;;
58966;SDS011;44744;51.894;5.080;2023-05-10T01:20:21;35.00;;;25.70;;
58966;SDS011;44744;51.894;5.080;2023-05-10T01:21:26;33.80;;;24.50;;
58966;SDS011;44744;51.894;5.080;2023-05-10T01:22:58;35.90;;;25.50;;
58966;SDS011;44744;51.894;5.080;2023-05-10T01:28:56;29.60;;;23.60;;
58966;SDS011;44744;51.894;5.080;2023-05-10T01:34:09;32.70;;;25.40;;
58966;SDS011;44744;51.894;5.080;2023-05-10T01:35:31;33.60;;;26.20;;
58966;SDS011;44744;51.894;5.080;2023-05-10T01:36:51;38.10;;;26.10;;
58966;SDS011;44744;51.894;5.080;2023-05-10T01:39:28;31.80;;;24.30;;
58966;SDS011;44744;51.894;5.080;2023-05-10T01:40:47;33.50;;;24.90;;
58966;SDS011;44744;51.894;5.080;2023-05-10T01:43:22;35.30;;;25.40;;
58966;SDS011;44744;51.894;5.080;2023-05-10T01:44:31;37.90;;;25.50;;
58966;SDS011;44744;51.894;5.080;2023-05-10T01:45:39;32.50;;;25.80;;
58966;SDS011;44744;51.894;5.080;2023-05-10T01:46:48;33.60;;;24.60;;
58966;SDS011;44744;51.894;5.080;2023-05-10T01:47:54;32.90;;;24.70;;
58966;SDS011;44744;51.894;5.080;2023-05-10T01:49:11;33.40;;;23.90;;
58966;SDS011;44744;51.894;5.080;2023-05-10T01:50:24;34.30;;;23.90;;
58966;SDS011;44744;51.894;5.080;2023-05-10T01:51:31;29.70;;;23.20;;
58966;SDS011;44744;51.894;5.080;2023-05-10T01:52:43;30.90;;;23.70;;
58966;SDS011;44744;51.894;5.080;2023-05-10T01:53:47;34.10;;;24.40;;
58966;SDS011;44744;51.894;5.080;2023-05-10T01:54:50;33.20;;;25.40;;
58966;SDS011;44744;51.894;5.080;2023-05-10T01:55:55;29.50;;;24.20;;
58966;SDS011;44744;51.894;5.080;2023-05-10T01:56:59;34.80;;;25.70;;
58966;SDS011;44744;51.894;5.080;2023-05-10T01:58:13;30.70;;;24.70;;
58966;SDS011;44744;51.894;5.080;2023-05-10T01:59:18;34.80;;;24.50;;
58966;SDS011;44744;51.894;5.080;2023-05-10T02:00:20;36.30;;;25.40;;
58966;SDS011;44744;51.894;5.080;2023-05-10T02:01:22;36.60;;;25.80;;
58966;SDS011;44744;51.894;5.080;2023-05-10T02:02:24;34.10;;;25.50;;
58966;SDS011;44744;51.894;5.080;2023-05-10T02:03:27;35.10;;;25.50;;
58966;SDS011;44744;51.894;5.080;2023-05-10T02:04:29;36.50;;;25.60;;
58966;SDS011;44744;51.894;5.080;2023-05-10T02:05:31;35.20;;;26.80;;
58966;SDS011;44744;51.894;5.080;2023-05-10T02:06:32;35.60;;;24.40;;
58966;SDS011;44744;51.894;5.080;2023-05-10T02:07:35;34.00;;;26.00;;
58966;SDS011;44744;51.894;5.080;2023-05-10T02:08:36;30.90;;;24.90;;
58966;SDS011;44744;51.894;5.080;2023-05-10T02:09:39;32.80;;;24.80;;
58966;SDS011;44744;51.894;5.080;2023-05-10T02:10:44;32.90;;;25.60;;
58966;SDS011;44744;51.894;5.080;2023-05-10T02:11:47;34.90;;;26.30;;
58966;SDS011;44744;51.894;5.080;2023-05-10T02:12:49;38.40;;;26.30;;
58966;SDS011;44744;51.894;5.080;2023-05-10T02:13:53;35.60;;;27.10;;
58966;SDS011;44744;51.894;5.080;2023-05-10T02:14:56;34.00;;;25.80;;
58966;SDS011;44744;51.894;5.080;2023-05-10T02:15:59;33.00;;;24.80;;
58966;SDS011;44744;51.894;5.080;2023-05-10T02:17:05;37.50;;;27.40;;
58966;SDS011;44744;51.894;5.080;2023-05-10T02:18:06;33.90;;;24.60;;
58966;SDS011;44744;51.894;5.080;2023-05-10T02:19:09;33.70;;;26.00;;
58966;SDS011;44744;51.894;5.080;2023-05-10T02:20:11;31.20;;;24.40;;
58966;SDS011;44744;51.894;5.080;2023-05-10T02:21:12;34.50;;;25.00;;
58966;SDS011;44744;51.894;5.080;2023-05-10T02:22:15;32.80;;;24.00;;
58966;SDS011;44744;51.894;5.080;2023-05-10T02:23:17;34.70;;;24.60;;
58966;SDS011;44744;51.894;5.080;2023-05-10T02:24:19;35.50;;;25.40;;
58966;SDS011;44744;51.894;5.080;2023-05-10T02:25:24;33.80;;;23.40;;
58966;SDS011;44744;51.894;5.080;2023-05-10T02:26:25;31.40;;;23.30;;
58966;SDS011;44744;51.894;5.080;2023-05-10T02:27:27;29.40;;;23.10;;
58966;SDS011;44744;51.894;5.080;2023-05-10T02:28:29;30.80;;;24.40;;
58966;SDS011;44744;51.894;5.080;2023-05-10T02:29:31;33.00;;;23.40;;
58966;SDS011;44744;51.894;5.080;2023-05-10T02:30:33;34.30;;;25.00;;
58966;SDS011;44744;51.894;5.080;2023-05-10T02:31:35;32.30;;;23.70;;
58966;SDS011;44744;51.894;5.080;2023-05-10T02:32:36;36.00;;;26.30;;
58966;SDS011;44744;51.894;5.080;2023-05-10T02:34:39;33.10;;;23.90;;
58966;SDS011;44744;51.894;5.080;2023-05-10T02:35:41;30.60;;;22.90;;
58966;SDS011;44744;51.894;5.080;2023-05-10T02:36:42;35.70;;;23.60;;
58966;SDS011;44744;51.894;5.080;2023-05-10T02:37:43;28.60;;;21.90;;
58966;SDS011;44744;51.894;5.080;2023-05-10T02:38:45;41.40;;;24.10;;
58966;SDS011;44744;51.894;5.080;2023-05-10T02:39:47;29.50;;;23.00;;
58966;SDS011;44744;51.894;5.080;2023-05-10T02:40:49;36.40;;;24.50;;
58966;SDS011;44744;51.894;5.080;2023-05-10T02:41:51;33.30;;;25.20;;
58966;SDS011;44744;51.894;5.080;2023-05-10T02:42:54;33.50;;;24.00;;
58966;SDS011;44744;51.894;5.080;2023-05-10T02:43:57;30.60;;;22.40;;
58966;SDS011;44744;51.894;5.080;2023-05-10T02:45:02;32.70;;;23.10;;
58966;SDS011;44744;51.894;5.080;2023-05-10T02:46:07;37.20;;;24.90;;
58966;SDS011;44744;51.894;5.080;2023-05-10T02:47:07;34.00;;;23.80;;
58966;SDS011;44744;51.894;5.080;2023-05-10T02:48:08;35.40;;;24.50;;
58966;SDS011;44744;51.894;5.080;2023-05-10T02:49:08;36.50;;;24.40;;
58966;SDS011;44744;51.894;5.080;2023-05-10T02:50:09;33.60;;;23.50;;
58966;SDS011;44744;51.894;5.080;2023-05-10T02:51:09;30.50;;;22.80;;
58966;SDS011;44744;51.894;5.080;2023-05-10T02:52:15;34.20;;;23.30;;
58966;SDS011;44744;51.894;5.080;2023-05-10T02:53:23;33.80;;;23.80;;
58966;SDS011;44744;51.894;5.080;2023-05-10T02:54:39;38.40;;;24.30;;
58966;SDS011;44744;51.894;5.080;2023-05-10T02:55:45;35.10;;;23.20;;
58966;SDS011;44744;51.894;5.080;2023-05-10T02:56:53;36.20;;;24.20;;
58966;SDS011;44744;51.894;5.080;2023-05-10T02:58:01;30.10;;;22.20;;
58966;SDS011;44744;51.894;5.080;2023-05-10T02:59:02;33.70;;;23.20;;
58966;SDS011;44744;51.894;5.080;2023-05-10T03:00:02;36.10;;;23.00;;
58966;SDS011;44744;51.894;5.080;2023-05-10T03:01:03;30.40;;;22.70;;
58966;SDS011;44744;51.894;5.080;2023-05-10T03:02:03;30.10;;;22.30;;
58966;SDS011;44744;51.894;5.080;2023-05-10T03:03:04;34.40;;;23.20;;
58966;SDS011;44744;51.894;5.080;2023-05-10T03:04:05;35.70;;;23.70;;
58966;SDS011;44744;51.894;5.080;2023-05-10T03:05:05;34.30;;;23.50;;
58966;SDS011;44744;51.894;5.080;2023-05-10T03:06:06;34.90;;;22.40;;
58966;SDS011;44744;51.894;5.080;2023-05-10T03:07:06;32.60;;;23.00;;
58966;SDS011;44744;51.894;5.080;2023-05-10T03:08:07;31.70;;;22.90;;
58966;SDS011;44744;51.894;5.080;2023-05-10T03:09:09;35.30;;;24.50;;
58966;SDS011;44744;51.894;5.080;2023-05-10T03:10:11;35.10;;;24.50;;
58966;SDS011;44744;51.894;5.080;2023-05-10T03:16:15;33.10;;;22.60;;
58966;SDS011;44744;51.894;5.080;2023-05-10T03:18:56;35.30;;;24.20;;
58966;SDS011;44744;51.894;5.080;2023-05-10T03:20:06;33.70;;;22.90;;
58966;SDS011;44744;51.894;5.080;2023-05-10T03:21:11;34.40;;;23.90;;
58966;SDS011;44744;51.894;5.080;2023-05-10T03:22:13;37.20;;;23.00;;
58966;SDS011;44744;51.894;5.080;2023-05-10T03:23:27;35.10;;;23.00;;
58966;SDS011;44744;51.894;5.080;2023-05-10T03:24:35;32.10;;;22.30;;
58966;SDS011;44744;51.894;5.080;2023-05-10T03:25:36;32.20;;;23.20;;
58966;SDS011;44744;51.894;5.080;2023-05-10T03:26:38;33.30;;;22.80;;
58966;SDS011;44744;51.894;5.080;2023-05-10T03:27:41;39.00;;;23.50;;
58966;SDS011;44744;51.894;5.080;2023-05-10T03:28:44;36.70;;;24.40;;
58966;SDS011;44744;51.894;5.080;2023-05-10T03:29:47;35.50;;;23.00;;
58966;SDS011;44744;51.894;5.080;2023-05-10T03:30:48;34.50;;;22.50;;
58966;SDS011;44744;51.894;5.080;2023-05-10T03:31:50;37.60;;;24.70;;
58966;SDS011;44744;51.894;5.080;2023-05-10T03:33:05;36.70;;;24.30;;
58966;SDS011;44744;51.894;5.080;2023-05-10T03:34:12;33.50;;;23.30;;
58966;SDS011;44744;51.894;5.080;2023-05-10T03:35:12;38.60;;;24.20;;
58966;SDS011;44744;51.894;5.080;2023-05-10T03:36:12;35.20;;;24.00;;
58966;SDS011;44744;51.894;5.080;2023-05-10T03:37:13;34.80;;;23.30;;
58966;SDS011;44744;51.894;5.080;2023-05-10T03:38:13;32.80;;;23.40;;
58966;SDS011;44744;51.894;5.080;2023-05-10T03:39:13;37.00;;;24.40;;
58966;SDS011;44744;51.894;5.080;2023-05-10T03:40:14;34.80;;;23.60;;
58966;SDS011;44744;51.894;5.080;2023-05-10T03:41:14;36.00;;;24.00;;
58966;SDS011;44744;51.894;5.080;2023-05-10T03:42:14;33.50;;;22.60;;
58966;SDS011;44744;51.894;5.080;2023-05-10T03:43:14;38.70;;;23.80;;
58966;SDS011;44744;51.894;5.080;2023-05-10T03:44:15;33.70;;;22.30;;
58966;SDS011;44744;51.894;5.080;2023-05-10T03:45:15;33.70;;;23.30;;
58966;SDS011;44744;51.894;5.080;2023-05-10T03:46:15;34.50;;;23.40;;
58966;SDS011;44744;51.894;5.080;2023-05-10T03:47:16;38.10;;;24.40;;
58966;SDS011;44744;51.894;5.080;2023-05-10T03:48:16;35.40;;;23.40;;
58966;SDS011;44744;51.894;5.080;2023-05-10T03:49:16;37.70;;;23.30;;
58966;SDS011;44744;51.894;5.080;2023-05-10T03:50:16;32.40;;;23.40;;
58966;SDS011;44744;51.894;5.080;2023-05-10T03:51:17;38.80;;;24.00;;
58966;SDS011;44744;51.894;5.080;2023-05-10T03:52:17;37.80;;;24.80;;
58966;SDS011;44744;51.894;5.080;2023-05-10T03:53:17;33.60;;;24.10;;
58966;SDS011;44744;51.894;5.080;2023-05-10T03:54:17;32.90;;;23.50;;
58966;SDS011;44744;51.894;5.080;2023-05-10T03:55:21;34.30;;;24.90;;
58966;SDS011;44744;51.894;5.080;2023-05-10T03:56:21;35.50;;;23.60;;
58966;SDS011;44744;51.894;5.080;2023-05-10T03:57:21;39.00;;;25.90;;
58966;SDS011;44744;51.894;5.080;2023-05-10T03:58:21;35.70;;;24.50;;
58966;SDS011;44744;51.894;5.080;2023-05-10T03:59:22;38.00;;;25.70;;
58966;SDS011;44744;51.894;5.080;2023-05-10T04:00:22;40.10;;;24.00;;
58966;SDS011;44744;51.894;5.080;2023-05-10T04:01:22;37.40;;;24.80;;
58966;SDS011;44744;51.894;5.080;2023-05-10T04:02:23;40.70;;;26.70;;
58966;SDS011;44744;51.894;5.080;2023-05-10T04:03:23;36.60;;;25.20;;
58966;SDS011;44744;51.894;5.080;2023-05-10T04:04:23;39.30;;;25.10;;
58966;SDS011;44744;51.894;5.080;2023-05-10T04:05:24;40.40;;;25.60;;
58966;SDS011;44744;51.894;5.080;2023-05-10T04:06:24;37.60;;;26.00;;
58966;SDS011;44744;51.894;5.080;2023-05-10T04:07:24;39.10;;;26.20;;
58966;SDS011;44744;51.894;5.080;2023-05-10T04:08:25;38.60;;;26.00;;
58966;SDS011;44744;51.894;5.080;2023-05-10T04:09:25;42.50;;;25.60;;
58966;SDS011;44744;51.894;5.080;2023-05-10T04:10:25;42.00;;;26.90;;
58966;SDS011;44744;51.894;5.080;2023-05-10T04:11:25;38.40;;;26.70;;
58966;SDS011;44744;51.894;5.080;2023-05-10T04:12:26;36.50;;;24.80;;
58966;SDS011;44744;51.894;5.080;2023-05-10T04:13:26;42.40;;;26.50;;
58966;SDS011;44744;51.894;5.080;2023-05-10T04:14:26;40.00;;;26.30;;
58966;SDS011;44744;51.894;5.080;2023-05-10T04:15:50;36.40;;;26.40;;
58966;SDS011;44744;51.894;5.080;2023-05-10T04:17:01;43.10;;;26.20;;
58966;SDS011;44744;51.894;5.080;2023-05-10T04:18:02;38.50;;;26.90;;
58966;SDS011;44744;51.894;5.080;2023-05-10T04:19:17;41.90;;;27.00;;
58966;SDS011;44744;51.894;5.080;2023-05-10T04:20:18;40.60;;;27.40;;
58966;SDS011;44744;51.894;5.080;2023-05-10T04:21:18;36.30;;;26.80;;
58966;SDS011;44744;51.894;5.080;2023-05-10T04:22:19;41.40;;;26.80;;
58966;SDS011;44744;51.894;5.080;2023-05-10T04:23:19;40.40;;;28.80;;
58966;SDS011;44744;51.894;5.080;2023-05-10T04:24:19;42.40;;;29.10;;
58966;SDS011;44744;51.894;5.080;2023-05-10T04:25:20;42.90;;;29.20;;
58966;SDS011;44744;51.894;5.080;2023-05-10T04:26:20;43.80;;;29.20;;
58966;SDS011;44744;51.894;5.080;2023-05-10T04:27:20;48.30;;;29.50;;
58966;SDS011;44744;51.894;5.080;2023-05-10T04:28:20;46.30;;;29.40;;
58966;SDS011;44744;51.894;5.080;2023-05-10T04:29:21;46.80;;;30.60;;
58966;SDS011;44744;51.894;5.080;2023-05-10T04:30:21;44.70;;;29.70;;
58966;SDS011;44744;51.894;5.080;2023-05-10T04:31:21;45.40;;;31.80;;
58966;SDS011;44744;51.894;5.080;2023-05-10T04:32:22;45.10;;;31.90;;
58966;SDS011;44744;51.894;5.080;2023-05-10T04:33:22;42.60;;;31.40;;
58966;SDS011;44744;51.894;5.080;2023-05-10T04:34:22;45.50;;;31.60;;
58966;SDS011;44744;51.894;5.080;2023-05-10T04:35:23;49.80;;;33.10;;
58966;SDS011;44744;51.894;5.080;2023-05-10T04:36:23;46.30;;;31.50;;
58966;SDS011;44744;51.894;5.080;2023-05-10T04:37:23;45.10;;;33.10;;
58966;SDS011;44744;51.894;5.080;2023-05-10T04:38:24;49.10;;;33.00;;
58966;SDS011;44744;51.894;5.080;2023-05-10T04:39:24;44.50;;;32.40;;
58966;SDS011;44744;51.894;5.080;2023-05-10T04:40:24;44.30;;;32.20;;
58966;SDS011;44744;51.894;5.080;2023-05-10T04:41:25;44.00;;;32.10;;
58966;SDS011;44744;51.894;5.080;2023-05-10T04:42:26;44.70;;;31.90;;
58966;SDS011;44744;51.894;5.080;2023-05-10T04:43:26;49.70;;;32.50;;
58966;SDS011;44744;51.894;5.080;2023-05-10T04:44:26;42.20;;;32.80;;
58966;SDS011;44744;51.894;5.080;2023-05-10T04:45:26;49.10;;;33.10;;
58966;SDS011;44744;51.894;5.080;2023-05-10T04:46:30;42.20;;;31.80;;
58966;SDS011;44744;51.894;5.080;2023-05-10T04:47:33;45.00;;;32.70;;
58966;SDS011;44744;51.894;5.080;2023-05-10T04:48:36;43.90;;;32.70;;
58966;SDS011;44744;51.894;5.080;2023-05-10T04:49:36;45.90;;;31.80;;
58966;SDS011;44744;51.894;5.080;2023-05-10T04:50:36;46.20;;;33.00;;
58966;SDS011;44744;51.894;5.080;2023-05-10T04:51:36;45.10;;;32.30;;
58966;SDS011;44744;51.894;5.080;2023-05-10T04:52:43;46.60;;;32.50;;
58966;SDS011;44744;51.894;5.080;2023-05-10T04:54:06;49.00;;;32.30;;
58966;SDS011;44744;51.894;5.080;2023-05-10T04:55:12;44.70;;;32.00;;
58966;SDS011;44744;51.894;5.080;2023-05-10T04:56:12;43.60;;;30.80;;
58966;SDS011;44744;51.894;5.080;2023-05-10T04:57:13;42.60;;;30.10;;
58966;SDS011;44744;51.894;5.080;2023-05-10T04:58:13;46.20;;;32.20;;
58966;SDS011;44744;51.894;5.080;2023-05-10T04:59:13;40.10;;;29.80;;
58966;SDS011;44744;51.894;5.080;2023-05-10T05:00:14;41.90;;;29.60;;
58966;SDS011;44744;51.894;5.080;2023-05-10T05:01:14;38.60;;;29.10;;
58966;SDS011;44744;51.894;5.080;2023-05-10T05:02:15;42.80;;;29.60;;
58966;SDS011;44744;51.894;5.080;2023-05-10T05:03:15;35.60;;;27.80;;
58966;SDS011;44744;51.894;5.080;2023-05-10T05:04:15;34.80;;;27.00;;
58966;SDS011;44744;51.894;5.080;2023-05-10T05:05:16;36.80;;;28.30;;
58966;SDS011;44744;51.894;5.080;2023-05-10T05:06:16;37.10;;;27.10;;
58966;SDS011;44744;51.894;5.080;2023-05-10T05:07:16;34.30;;;25.20;;
58966;SDS011;44744;51.894;5.080;2023-05-10T05:08:16;39.70;;;26.20;;
58966;SDS011;44744;51.894;5.080;2023-05-10T05:09:19;31.90;;;24.20;;
58966;SDS011;44744;51.894;5.080;2023-05-10T05:10:19;30.00;;;24.10;;
58966;SDS011;44744;51.894;5.080;2023-05-10T05:11:19;34.30;;;25.50;;
58966;SDS011;44744;51.894;5.080;2023-05-10T05:12:20;27.80;;;24.00;;
58966;SDS011;44744;51.894;5.080;2023-05-10T05:13:20;33.80;;;25.20;;
58966;SDS011;44744;51.894;5.080;2023-05-10T05:14:23;32.70;;;24.90;;
58966;SDS011;44744;51.894;5.080;2023-05-10T05:15:23;33.20;;;24.40;;
58966;SDS011;44744;51.894;5.080;2023-05-10T05:16:24;32.80;;;25.30;;
58966;SDS011;44744;51.894;5.080;2023-05-10T05:17:24;34.70;;;26.10;;
58966;SDS011;44744;51.894;5.080;2023-05-10T05:18:24;38.40;;;27.00;;
58966;SDS011;44744;51.894;5.080;2023-05-10T05:19:24;36.60;;;28.10;;
58966;SDS011;44744;51.894;5.080;2023-05-10T05:20:25;38.20;;;28.10;;
58966;SDS011;44744;51.894;5.080;2023-05-10T05:21:25;44.60;;;29.30;;
58966;SDS011;44744;51.894;5.080;2023-05-10T05:22:27;39.30;;;29.50;;
58966;SDS011;44744;51.894;5.080;2023-05-10T05:23:27;42.80;;;29.80;;
58966;SDS011;44744;51.894;5.080;2023-05-10T05:24:28;40.10;;;30.10;;
58966;SDS011;44744;51.894;5.080;2023-05-10T05:25:28;42.80;;;30.70;;
58966;SDS011;44744;51.894;5.080;2023-05-10T05:26:28;49.70;;;31.30;;
58966;SDS011;44744;51.894;5.080;2023-05-10T05:27:29;43.20;;;30.60;;
58966;SDS011;44744;51.894;5.080;2023-05-10T05:28:29;53.00;;;33.80;;
58966;SDS011;44744;51.894;5.080;2023-05-10T05:29:29;44.40;;;31.40;;
58966;SDS011;44744;51.894;5.080;2023-05-10T05:30:30;47.70;;;32.10;;
58966;SDS011;44744;51.894;5.080;2023-05-10T05:31:30;46.00;;;32.70;;
58966;SDS011;44744;51.894;5.080;2023-05-10T05:32:30;48.60;;;32.40;;
58966;SDS011;44744;51.894;5.080;2023-05-10T05:33:31;47.00;;;32.00;;
58966;SDS011;44744;51.894;5.080;2023-05-10T05:34:31;50.60;;;33.70;;
58966;SDS011;44744;51.894;5.080;2023-05-10T05:35:31;50.70;;;34.30;;
58966;SDS011;44744;51.894;5.080;2023-05-10T05:36:32;48.90;;;33.00;;
58966;SDS011;44744;51.894;5.080;2023-05-10T05:37:33;47.90;;;32.40;;
58966;SDS011;44744;51.894;5.080;2023-05-10T05:38:34;53.70;;;35.10;;
58966;SDS011;44744;51.894;5.080;2023-05-10T05:39:35;51.10;;;35.40;;
58966;SDS011;44744;51.894;5.080;2023-05-10T05:40:35;53.90;;;36.00;;
58966;SDS011;44744;51.894;5.080;2023-05-10T05:41:36;48.70;;;34.50;;
58966;SDS011;44744;51.894;5.080;2023-05-10T05:42:36;47.50;;;34.70;;
58966;SDS011;44744;51.894;5.080;2023-05-10T05:43:37;56.00;;;36.70;;
58966;SDS011;44744;51.894;5.080;2023-05-10T05:44:37;54.60;;;35.10;;
58966;SDS011;44744;51.894;5.080;2023-05-10T05:45:38;52.40;;;36.50;;
58966;SDS011;44744;51.894;5.080;2023-05-10T05:46:38;56.10;;;37.00;;
58966;SDS011;44744;51.894;5.080;2023-05-10T05:47:39;54.00;;;36.60;;
58966;SDS011;44744;51.894;5.080;2023-05-10T05:48:41;54.80;;;37.00;;
58966;SDS011;44744;51.894;5.080;2023-05-10T05:49:41;57.80;;;37.40;;
58966;SDS011;44744;51.894;5.080;2023-05-10T05:50:41;54.00;;;39.70;;
58966;SDS011;44744;51.894;5.080;2023-05-10T05:51:41;51.00;;;34.70;;
58966;SDS011;44744;51.894;5.080;2023-05-10T05:52:42;52.30;;;36.20;;
58966;SDS011;44744;51.894;5.080;2023-05-10T05:53:42;52.90;;;35.70;;
58966;SDS011;44744;51.894;5.080;2023-05-10T05:54:42;51.30;;;35.60;;
58966;SDS011;44744;51.894;5.080;2023-05-10T05:56:01;50.50;;;35.20;;
58966;SDS011;44744;51.894;5.080;2023-05-10T05:57:01;48.00;;;34.70;;
58966;SDS011;44744;51.894;5.080;2023-05-10T05:58:02;48.00;;;34.60;;
58966;SDS011;44744;51.894;5.080;2023-05-10T05:59:02;50.20;;;33.90;;
58966;SDS011;44744;51.894;5.080;2023-05-10T06:00:02;44.50;;;35.10;;
58966;SDS011;44744;51.894;5.080;2023-05-10T06:01:03;45.90;;;34.10;;
58966;SDS011;44744;51.894;5.080;2023-05-10T06:02:05;47.10;;;34.00;;
58966;SDS011;44744;51.894;5.080;2023-05-10T06:03:05;47.70;;;34.50;;
58966;SDS011;44744;51.894;5.080;2023-05-10T06:04:20;45.00;;;33.50;;
58966;SDS011;44744;51.894;5.080;2023-05-10T06:05:23;44.90;;;33.90;;
58966;SDS011;44744;51.894;5.080;2023-05-10T06:06:24;48.40;;;35.80;;
58966;SDS011;44744;51.894;5.080;2023-05-10T06:07:27;46.70;;;34.40;;
58966;SDS011;44744;51.894;5.080;2023-05-10T06:08:27;47.90;;;35.20;;
58966;SDS011;44744;51.894;5.080;2023-05-10T06:09:28;46.40;;;35.70;;
58966;SDS011;44744;51.894;5.080;2023-05-10T06:10:28;44.30;;;34.70;;
58966;SDS011;44744;51.894;5.080;2023-05-10T06:11:28;50.10;;;36.80;;
58966;SDS011;44744;51.894;5.080;2023-05-10T06:12:28;46.60;;;35.70;;
58966;SDS011;44744;51.894;5.080;2023-05-10T06:13:29;48.30;;;35.90;;
58966;SDS011;44744;51.894;5.080;2023-05-10T06:14:29;49.00;;;36.10;;
58966;SDS011;44744;51.894;5.080;2023-05-10T06:15:29;51.30;;;37.40;;
58966;SDS011;44744;51.894;5.080;2023-05-10T06:16:30;50.80;;;37.10;;
58966;SDS011;44744;51.894;5.080;2023-05-10T06:17:30;44.80;;;34.50;;
58966;SDS011;44744;51.894;5.080;2023-05-10T06:18:31;49.90;;;35.30;;
58966;SDS011;44744;51.894;5.080;2023-05-10T06:19:31;47.90;;;36.80;;
58966;SDS011;44744;51.894;5.080;2023-05-10T06:20:31;49.50;;;35.80;;
58966;SDS011;44744;51.894;5.080;2023-05-10T06:21:31;50.60;;;36.60;;
58966;SDS011;44744;51.894;5.080;2023-05-10T06:22:32;52.90;;;37.20;;